Time;durP1;ratioP1;P1;durP2;ratioP2;P2;SDS_P1;SDS_P2;PMS_P1;PMS_P2;Temp;Humidity;BMP_temperature;BMP_pressure;BME280_temperature;BME280_humidity;BME280_pressure;Samples;Min_cycle;Max_cycle;Signal;HPM_P1;HPM_P2
2021/08/31 00:02:04;;;;;;;5.20;2.60;;;16.00;99.90;;;;;;5016613;28;20218;-88
2021/08/31 00:04:30;;;;;;;8.20;2.57;;;15.90;99.90;;;;;;5005359;28;20268;-87
2021/08/31 00:06:56;;;;;;;5.43;2.97;;;15.90;99.90;;;;;;5007352;28;20298;-87
2021/08/31 00:09:21;;;;;;;5.53;3.37;;;16.00;99.90;;;;;;5006776;28;20207;-87
2021/08/31 00:11:47;;;;;;;6.17;2.90;;;16.10;99.90;;;;;;5007504;28;20659;-88
2021/08/31 00:14:13;;;;;;;7.67;2.50;;;16.10;99.90;;;;;;5007402;28;20767;-89
2021/08/31 00:16:40;;;;;;;12.60;3.60;;;16.10;99.90;;;;;;5006355;28;20254;-88
2021/08/31 00:19:06;;;;;;;13.97;3.17;;;16.10;99.90;;;;;;5013842;28;20217;-88
2021/08/31 00:21:32;;;;;;;9.27;2.93;;;16.10;99.90;;;;;;5007107;28;20179;-88
2021/08/31 00:23:58;;;;;;;6.23;2.17;;;16.10;99.90;;;;;;5014718;28;20179;-88
2021/08/31 00:26:24;;;;;;;11.97;3.23;;;16.10;99.90;;;;;;5007301;28;20998;-88
2021/08/31 00:28:50;;;;;;;5.07;3.10;;;16.10;99.90;;;;;;5017640;28;20211;-88
2021/08/31 00:31:16;;;;;;;10.90;3.30;;;16.10;99.90;;;;;;5007550;28;20762;-88
2021/08/31 00:33:41;;;;;;;10.07;3.47;;;16.10;99.90;;;;;;5007398;28;21314;-88
2021/08/31 00:36:07;;;;;;;5.03;2.90;;;16.20;99.90;;;;;;5000109;28;20330;-89
2021/08/31 00:38:33;;;;;;;6.60;3.67;;;16.20;99.90;;;;;;5005189;28;20879;-89
2021/08/31 00:40:59;;;;;;;8.63;4.17;;;16.10;99.90;;;;;;5006413;28;20605;-89
2021/08/31 00:43:26;;;;;;;8.43;3.77;;;16.10;99.90;;;;;;5017382;28;20330;-90
2021/08/31 00:45:52;;;;;;;4.50;3.93;;;16.10;99.90;;;;;;5006745;28;20218;-90
2021/08/31 00:48:24;;;;;;;9.67;3.83;;;16.10;99.90;;;;;;5016174;28;20673;-90
2021/08/31 00:50:53;;;;;;;11.07;2.97;;;16.10;99.90;;;;;;5016366;28;20262;-89
2021/08/31 00:53:19;;;;;;;9.17;3.47;;;16.10;99.90;;;;;;4999242;28;20691;-89
2021/08/31 00:55:46;;;;;;;5.60;2.90;;;16.10;99.90;;;;;;5006094;28;20234;-89
2021/08/31 00:58:12;;;;;;;7.13;3.63;;;16.00;99.90;;;;;;5006499;28;20254;-89
2021/08/31 01:00:37;;;;;;;6.20;3.40;;;16.00;99.90;;;;;;5006767;28;20231;-89
2021/08/31 01:03:03;;;;;;;7.33;2.83;;;16.00;99.90;;;;;;5007775;28;20209;-87
2021/08/31 01:05:31;;;;;;;5.37;3.20;;;16.00;99.90;;;;;;5006033;28;20215;-89
2021/08/31 01:07:57;;;;;;;4.20;2.40;;;16.00;99.90;;;;;;5015067;28;20227;-88
2021/08/31 01:10:24;;;;;;;4.47;3.63;;;16.00;99.90;;;;;;5006408;28;20228;-88
2021/08/31 01:12:51;;;;;;;9.13;3.23;;;16.00;99.90;;;;;;5005986;28;20219;-88
2021/08/31 01:15:17;;;;;;;5.27;3.43;;;16.00;99.90;;;;;;5006820;28;20269;-88
2021/08/31 01:17:43;;;;;;;6.13;3.37;;;16.00;99.90;;;;;;5010067;28;20238;-88
2021/08/31 01:20:09;;;;;;;9.57;3.27;;;16.00;99.90;;;;;;5010198;28;20745;-88
2021/08/31 01:22:35;;;;;;;13.00;3.87;;;16.00;99.90;;;;;;5009384;28;20584;-88
2021/08/31 01:25:06;;;;;;;10.43;3.60;;;16.00;99.90;;;;;;5010487;28;20211;-88
2021/08/31 01:27:31;;;;;;;5.00;3.07;;;15.90;99.90;;;;;;5016994;28;20824;-88
2021/08/31 01:29:59;;;;;;;2.80;2.30;;;15.90;99.90;;;;;;5010563;28;20179;-88
2021/08/31 01:32:26;;;;;;;8.30;3.23;;;15.90;99.90;;;;;;5008310;28;20995;-88
2021/08/31 01:34:52;;;;;;;12.37;4.03;;;15.90;99.90;;;;;;5008671;28;20700;-89
2021/08/31 01:37:18;;;;;;;5.63;3.60;;;15.90;99.90;;;;;;5008995;28;20241;-90
2021/08/31 01:39:44;;;;;;;13.60;3.73;;;15.80;99.90;;;;;;5017658;28;20629;-88
2021/08/31 01:42:10;;;;;;;17.60;4.17;;;15.80;99.90;;;;;;5010234;28;20685;-88
2021/08/31 01:44:36;;;;;;;10.57;4.07;;;15.80;99.90;;;;;;5009176;28;20703;-89
2021/08/31 01:47:02;;;;;;;8.60;3.37;;;15.80;99.90;;;;;;5002104;28;20222;-88
2021/08/31 01:49:27;;;;;;;6.97;3.30;;;15.80;99.90;;;;;;5009988;28;20242;-90
2021/08/31 01:51:53;;;;;;;7.87;4.40;;;15.70;99.90;;;;;;5009801;28;20585;-89
2021/08/31 01:54:19;;;;;;;9.63;4.33;;;15.80;99.90;;;;;;5009673;28;20388;-89
2021/08/31 01:56:45;;;;;;;9.30;3.50;;;15.90;99.90;;;;;;5009869;28;20221;-88
2021/08/31 01:59:11;;;;;;;8.20;3.43;;;15.90;99.90;;;;;;5009893;28;20207;-89
2021/08/31 02:01:38;;;;;;;12.30;4.27;;;15.90;99.90;;;;;;5009956;28;20716;-89
2021/08/31 02:04:04;;;;;;;7.47;4.17;;;16.00;99.90;;;;;;5016937;28;20212;-88
2021/08/31 02:06:30;;;;;;;7.90;5.50;;;16.00;99.90;;;;;;5009174;28;20229;-88
2021/08/31 02:08:56;;;;;;;10.17;4.40;;;16.10;99.90;;;;;;5009293;28;20659;-90
2021/08/31 02:11:22;;;;;;;6.73;3.70;;;16.10;99.90;;;;;;5017268;28;20226;-88
2021/08/31 02:13:47;;;;;;;8.13;3.93;;;16.20;99.90;;;;;;5019110;28;20216;-89
2021/08/31 02:16:13;;;;;;;5.77;3.20;;;16.20;99.90;;;;;;5017066;28;20330;-88
2021/08/31 02:18:40;;;;;;;6.90;3.03;;;16.10;99.90;;;;;;5015035;28;20278;-87
2021/08/31 02:21:07;;;;;;;6.73;4.77;;;16.10;99.90;;;;;;5025779;28;20209;-89
2021/08/31 02:23:33;;;;;;;8.43;3.87;;;16.10;99.90;;;;;;5008619;28;20687;-88
2021/08/31 02:25:59;;;;;;;5.73;3.43;;;16.10;99.90;;;;;;5017102;28;20222;-88
2021/08/31 02:28:25;;;;;;;10.87;4.27;;;16.10;99.90;;;;;;5007452;28;20236;-88
2021/08/31 02:30:50;;;;;;;4.33;3.23;;;16.10;99.90;;;;;;5015924;28;20223;-88
2021/08/31 02:33:16;;;;;;;5.80;3.63;;;16.10;99.90;;;;;;5016407;28;20634;-89
2021/08/31 02:35:42;;;;;;;4.73;3.03;;;16.10;99.90;;;;;;5008722;28;20211;-88
2021/08/31 02:38:08;;;;;;;16.60;4.27;;;16.20;99.90;;;;;;5009134;28;20225;-88
2021/08/31 02:40:34;;;;;;;6.67;3.83;;;16.20;99.90;;;;;;5007801;28;20708;-89
2021/08/31 02:43:00;;;;;;;7.17;3.40;;;16.20;99.90;;;;;;5019189;28;20215;-90
2021/08/31 02:45:26;;;;;;;7.53;3.77;;;16.20;99.90;;;;;;5008498;28;20206;-90
2021/08/31 02:47:51;;;;;;;10.70;4.43;;;16.20;99.90;;;;;;5009488;28;20193;-90
2021/08/31 02:50:17;;;;;;;5.70;3.93;;;16.20;99.90;;;;;;5008122;28;20572;-90
2021/08/31 02:52:44;;;;;;;6.83;4.40;;;16.20;99.90;;;;;;5014516;28;20243;-90
2021/08/31 02:55:11;;;;;;;7.93;3.90;;;16.20;99.90;;;;;;5018172;28;20643;-89
2021/08/31 02:57:37;;;;;;;5.73;3.60;;;16.20;99.90;;;;;;5019452;28;20188;-90
2021/08/31 03:00:07;;;;;;;8.07;4.00;;;16.10;99.90;;;;;;5007621;28;20237;-89
2021/08/31 03:02:33;;;;;;;7.93;3.60;;;16.00;99.90;;;;;;5018723;28;20226;-89
2021/08/31 03:04:59;;;;;;;5.70;3.97;;;16.00;99.90;;;;;;5006991;28;20207;-89
2021/08/31 03:07:25;;;;;;;5.83;2.97;;;16.10;99.90;;;;;;5007777;28;20207;-88
2021/08/31 03:09:51;;;;;;;6.70;3.40;;;16.10;99.90;;;;;;5008388;28;20226;-89
2021/08/31 03:12:17;;;;;;;6.20;3.83;;;16.20;99.90;;;;;;5019382;28;20191;-89
2021/08/31 03:14:42;;;;;;;12.40;4.80;;;16.20;99.90;;;;;;5007675;28;20781;-90
2021/08/31 03:17:09;;;;;;;6.87;3.27;;;16.20;99.90;;;;;;5007552;28;20375;-89
2021/08/31 03:19:35;;;;;;;9.03;4.97;;;16.20;99.90;;;;;;5014774;28;20719;-90
2021/08/31 03:22:03;;;;;;;4.63;2.83;;;16.30;99.90;;;;;;5008565;28;20207;-90
2021/08/31 03:24:29;;;;;;;6.60;3.53;;;16.30;99.90;;;;;;5034486;28;20191;-91
2021/08/31 03:26:56;;;;;;;10.07;3.57;;;16.30;99.90;;;;;;5018585;28;20193;-90
2021/08/31 03:29:22;;;;;;;8.97;4.70;;;16.40;99.90;;;;;;5013453;28;20219;-90
2021/08/31 03:31:48;;;;;;;4.97;3.33;;;16.40;99.90;;;;;;5017027;28;20550;-90
2021/08/31 03:34:14;;;;;;;14.27;4.30;;;16.40;99.90;;;;;;5016773;28;20280;-90
2021/08/31 03:36:40;;;;;;;7.30;3.87;;;16.40;99.90;;;;;;5008086;28;20186;-90
2021/08/31 03:39:05;;;;;;;5.53;3.37;;;16.40;99.90;;;;;;5007838;28;20227;-90
2021/08/31 03:41:31;;;;;;;10.47;4.13;;;16.40;99.90;;;;;;5005884;28;20691;-90
2021/08/31 03:43:57;;;;;;;7.47;5.20;;;16.40;99.90;;;;;;5008429;28;20218;-90
2021/08/31 03:46:23;;;;;;;8.50;4.77;;;16.50;99.90;;;;;;5007397;28;20722;-90
2021/08/31 03:48:49;;;;;;;6.87;3.47;;;16.50;99.90;;;;;;4996945;28;20587;-90
2021/08/31 03:51:15;;;;;;;6.23;3.77;;;16.60;99.90;;;;;;5007871;28;20188;-90
2021/08/31 03:53:41;;;;;;;6.93;4.17;;;16.60;99.90;;;;;;5007126;28;21456;-90
2021/08/31 03:56:07;;;;;;;8.10;3.40;;;16.60;99.90;;;;;;5006580;28;20823;-90
2021/08/31 03:58:32;;;;;;;9.90;4.50;;;16.60;99.90;;;;;;5006512;28;20238;-90
2021/08/31 04:00:58;;;;;;;3.87;2.57;;;16.50;99.90;;;;;;5007162;28;20223;-89
2021/08/31 04:03:24;;;;;;;4.37;2.83;;;16.50;99.90;;;;;;5006820;28;20230;-90
2021/08/31 04:05:50;;;;;;;6.63;3.47;;;16.50;99.90;;;;;;5006629;28;20184;-90
2021/08/31 04:08:15;;;;;;;11.27;4.20;;;16.50;99.90;;;;;;5007033;28;20302;-90
2021/08/31 04:10:41;;;;;;;8.07;3.43;;;16.50;99.90;;;;;;5006308;28;20222;-90
2021/08/31 04:13:07;;;;;;;4.97;3.60;;;16.50;99.90;;;;;;5007681;28;20396;-90
2021/08/31 04:15:34;;;;;;;3.60;2.93;;;16.50;99.90;;;;;;5017168;28;20277;-90
2021/08/31 04:18:00;;;;;;;4.80;3.40;;;16.50;99.90;;;;;;5006816;28;20231;-90
2021/08/31 04:20:25;;;;;;;14.77;5.03;;;16.50;99.90;;;;;;5007100;28;20218;-90
2021/08/31 04:22:52;;;;;;;3.83;3.47;;;16.50;99.90;;;;;;4998268;28;20213;-89
2021/08/31 04:25:18;;;;;;;12.77;3.03;;;16.40;99.90;;;;;;5014305;28;20211;-91
2021/08/31 04:27:44;;;;;;;13.70;3.67;;;16.40;99.90;;;;;;5005477;28;20691;-90
2021/08/31 04:30:10;;;;;;;15.67;4.33;;;16.40;99.90;;;;;;5007523;28;20290;-90
2021/08/31 04:32:36;;;;;;;10.10;4.13;;;16.40;99.90;;;;;;5007314;28;20234;-90
2021/08/31 04:35:03;;;;;;;3.57;2.50;;;16.50;99.90;;;;;;5007807;28;20222;-89
2021/08/31 04:37:32;;;;;;;5.90;3.10;;;16.50;99.90;;;;;;5015482;28;20309;-90
2021/08/31 04:39:59;;;;;;;8.00;3.23;;;16.50;99.90;;;;;;5014535;28;20217;-90
2021/08/31 04:42:25;;;;;;;5.03;3.10;;;16.50;99.90;;;;;;5006870;28;20249;-89
2021/08/31 04:44:51;;;;;;;10.30;3.33;;;16.60;99.90;;;;;;5007621;28;20195;-90
2021/08/31 04:47:17;;;;;;;6.07;2.97;;;16.50;99.90;;;;;;5016043;28;20710;-90
2021/08/31 04:49:43;;;;;;;3.37;3.07;;;16.50;99.90;;;;;;5016245;28;20223;-88
2021/08/31 04:52:09;;;;;;;5.33;3.03;;;16.50;99.90;;;;;;5015894;28;20242;-89
2021/08/31 04:54:35;;;;;;;6.50;2.97;;;16.50;99.90;;;;;;5010360;28;20203;-89
2021/08/31 04:57:01;;;;;;;9.50;3.97;;;16.50;99.90;;;;;;5018260;28;20186;-89
2021/08/31 04:59:27;;;;;;;7.00;2.87;;;16.50;99.90;;;;;;5017287;28;20245;-90
2021/08/31 05:01:53;;;;;;;11.70;2.43;;;16.50;99.90;;;;;;5010373;28;20290;-90
2021/08/31 05:04:19;;;;;;;8.13;2.73;;;16.50;99.90;;;;;;5018260;28;20215;-90
2021/08/31 05:06:44;;;;;;;7.93;3.40;;;16.50;99.90;;;;;;5010258;28;20256;-89
2021/08/31 05:09:10;;;;;;;3.67;2.30;;;16.50;99.90;;;;;;5010373;28;20199;-90
2021/08/31 05:11:36;;;;;;;7.30;3.07;;;16.50;99.90;;;;;;5019732;28;20317;-90
2021/08/31 05:14:03;;;;;;;3.77;2.80;;;16.50;99.90;;;;;;5009458;28;20218;-89
2021/08/31 05:16:28;;;;;;;4.37;2.57;;;16.50;99.90;;;;;;5019570;28;20257;-90
2021/08/31 05:18:55;;;;;;;6.90;2.67;;;16.60;99.90;;;;;;5017972;28;20236;-91
2021/08/31 05:21:21;;;;;;;5.87;1.97;;;16.50;99.90;;;;;;5010289;28;20194;-88
2021/08/31 05:23:47;;;;;;;6.37;2.17;;;16.50;99.90;;;;;;5011116;28;20274;-88
2021/08/31 05:26:13;;;;;;;3.87;2.30;;;16.50;99.90;;;;;;5009874;28;20237;-90
2021/08/31 05:28:38;;;;;;;5.27;2.50;;;16.50;99.90;;;;;;5010762;28;20218;-91
2021/08/31 05:31:04;;;;;;;7.77;2.30;;;16.60;99.90;;;;;;5010027;28;20229;-90
2021/08/31 05:33:30;;;;;;;11.60;3.03;;;16.60;99.90;;;;;;5009671;28;20190;-90
2021/08/31 05:35:56;;;;;;;4.67;2.23;;;16.60;99.90;;;;;;5002647;28;20238;-90
2021/08/31 05:38:22;;;;;;;4.90;2.23;;;16.60;99.90;;;;;;5010303;28;20265;-90
2021/08/31 05:40:47;;;;;;;6.07;2.50;;;16.60;99.90;;;;;;5000206;28;20202;-90
2021/08/31 05:43:13;;;;;;;4.73;2.40;;;16.60;99.90;;;;;;5009079;28;20273;-90
2021/08/31 05:45:39;;;;;;;6.97;3.33;;;16.60;99.90;;;;;;5017682;28;20192;-90
2021/08/31 05:48:05;;;;;;;15.67;3.07;;;16.70;99.90;;;;;;5010248;28;20244;-91
2021/08/31 05:50:30;;;;;;;3.10;2.57;;;16.80;99.90;;;;;;5017449;28;20310;-90
2021/08/31 05:52:56;;;;;;;5.50;3.37;;;16.80;99.90;;;;;;5004079;28;20222;-91
2021/08/31 05:55:22;;;;;;;4.43;3.23;;;16.80;99.90;;;;;;5010150;28;20287;-91
2021/08/31 05:57:48;;;;;;;6.17;2.83;;;16.90;99.90;;;;;;5017728;28;20223;-90
2021/08/31 06:00:14;;;;;;;8.27;2.47;;;17.00;99.90;;;;;;5010775;28;20647;-91
2021/08/31 06:02:42;;;;;;;6.87;2.77;;;17.00;99.90;;;;;;5015074;28;20241;-89
2021/08/31 06:05:08;;;;;;;6.33;2.90;;;17.00;99.90;;;;;;5021268;28;20215;-90
2021/08/31 06:07:34;;;;;;;4.20;2.13;;;17.10;99.90;;;;;;5018670;28;20219;-90
2021/08/31 06:10:02;;;;;;;14.00;3.90;;;17.10;99.90;;;;;;5009549;28;20295;-88
2021/08/31 06:12:28;;;;;;;6.90;2.50;;;17.10;99.90;;;;;;5018079;28;20237;-88
2021/08/31 06:14:54;;;;;;;3.50;2.20;;;17.10;99.90;;;;;;5009303;28;20223;-89
2021/08/31 06:17:21;;;;;;;8.07;2.40;;;17.00;99.90;;;;;;5009452;28;20301;-88
2021/08/31 06:19:47;;;;;;;7.10;2.50;;;17.00;99.90;;;;;;5011156;28;20293;-88
2021/08/31 06:22:13;;;;;;;6.37;2.33;;;16.90;99.90;;;;;;5008726;28;20298;-89
2021/08/31 06:24:38;;;;;;;9.53;2.33;;;16.90;99.90;;;;;;5008236;28;20202;-91
2021/08/31 06:27:04;;;;;;;3.10;2.03;;;16.90;99.90;;;;;;5008090;28;20187;-89
2021/08/31 06:29:31;;;;;;;4.23;2.70;;;16.90;99.90;;;;;;5000665;28;20787;-90
2021/08/31 06:31:56;;;;;;;2.30;1.97;;;17.00;99.90;;;;;;5019716;28;20261;-89
2021/08/31 06:34:23;;;;;;;2.40;2.10;;;17.00;99.90;;;;;;5009068;28;20218;-90
2021/08/31 06:36:49;;;;;;;6.93;2.50;;;17.00;99.90;;;;;;5016450;28;20683;-91
2021/08/31 06:39:15;;;;;;;8.77;2.60;;;17.00;99.90;;;;;;5008324;28;20310;-89
2021/08/31 06:41:41;;;;;;;9.27;2.67;;;17.00;99.90;;;;;;5008460;28;20211;-90
2021/08/31 06:44:08;;;;;;;4.63;2.47;;;17.00;99.90;;;;;;5008437;28;20694;-90
2021/08/31 06:46:34;;;;;;;6.47;2.37;;;17.10;99.90;;;;;;5034140;28;20210;-90
2021/08/31 06:49:00;;;;;;;6.93;2.57;;;17.10;99.90;;;;;;5010096;28;20215;-90
2021/08/31 06:51:25;;;;;;;6.23;2.13;;;17.20;99.90;;;;;;5001321;28;20194;-90
2021/08/31 06:53:51;;;;;;;5.83;2.57;;;17.30;99.90;;;;;;5007680;28;20258;-89
2021/08/31 06:56:17;;;;;;;4.80;2.07;;;17.30;99.90;;;;;;5008031;28;20285;-90
2021/08/31 06:58:43;;;;;;;9.70;2.27;;;17.30;99.90;;;;;;4999501;28;20227;-91
2021/08/31 07:01:08;;;;;;;10.50;2.30;;;17.20;99.90;;;;;;5007806;28;20211;-90
2021/08/31 07:03:34;;;;;;;4.23;2.03;;;17.20;99.90;;;;;;5007648;28;20655;-91
2021/08/31 07:06:00;;;;;;;5.10;2.70;;;17.30;99.90;;;;;;5008771;28;20195;-91
2021/08/31 07:08:26;;;;;;;8.00;1.70;;;17.30;99.90;;;;;;4991407;28;20210;-90
2021/08/31 07:10:51;;;;;;;6.40;2.17;;;17.40;99.90;;;;;;5008494;28;20762;-93
2021/08/31 07:13:17;;;;;;;3.30;1.83;;;17.50;99.90;;;;;;5002583;28;21012;-90
2021/08/31 07:15:43;;;;;;;6.33;2.57;;;17.60;99.90;;;;;;5009875;28;20633;-90
2021/08/31 07:18:09;;;;;;;4.77;2.03;;;17.50;99.90;;;;;;5008247;28;20238;-90
2021/08/31 07:20:35;;;;;;;3.73;2.50;;;17.40;99.90;;;;;;5008700;28;20649;-91
2021/08/31 07:23:01;;;;;;;4.07;2.47;;;17.50;99.90;;;;;;5007989;28;20308;-91
2021/08/31 07:25:27;;;;;;;6.10;1.80;;;17.50;99.90;;;;;;5007808;28;20219;-90
2021/08/31 07:27:52;;;;;;;2.40;1.90;;;17.60;99.90;;;;;;5007818;28;20242;-90
2021/08/31 07:30:19;;;;;;;7.97;3.10;;;17.60;99.90;;;;;;5008788;28;20607;-90
2021/08/31 07:32:44;;;;;;;10.40;2.03;;;17.60;99.90;;;;;;5016553;28;20219;-91
2021/08/31 07:35:10;;;;;;;4.43;2.50;;;17.50;99.90;;;;;;5007262;28;20223;-89
2021/08/31 07:37:36;;;;;;;4.07;2.57;;;17.50;99.90;;;;;;5016146;28;20702;-94
2021/08/31 07:40:03;;;;;;;3.23;2.17;;;17.50;99.90;;;;;;5007500;28;20215;-90
2021/08/31 07:42:29;;;;;;;8.90;2.83;;;17.60;99.90;;;;;;5015513;28;20179;-90
2021/08/31 07:44:55;;;;;;;3.17;2.03;;;17.70;99.90;;;;;;5008639;28;20233;-90
2021/08/31 07:47:21;;;;;;;5.20;2.67;;;17.80;99.90;;;;;;5007658;28;21298;-89
2021/08/31 07:49:47;;;;;;;4.20;2.17;;;17.70;99.90;;;;;;5008694;28;20838;-89
2021/08/31 07:52:12;;;;;;;3.57;2.33;;;17.70;99.90;;;;;;5007686;28;20227;-90
2021/08/31 07:54:39;;;;;;;5.83;2.40;;;17.70;99.90;;;;;;5007975;28;20257;-88
2021/08/31 07:57:04;;;;;;;6.37;2.40;;;17.70;99.90;;;;;;5016206;28;20233;-89
2021/08/31 07:59:30;;;;;;;6.40;2.90;;;17.70;99.90;;;;;;5006596;28;20608;-91
2021/08/31 08:01:56;;;;;;;7.20;2.37;;;17.70;99.90;;;;;;5007054;28;20272;-89
2021/08/31 08:04:22;;;;;;;6.00;2.13;;;17.90;99.90;;;;;;5006207;28;20221;-88
2021/08/31 08:06:48;;;;;;;4.20;1.93;;;17.90;99.90;;;;;;4997960;28;20778;-87
2021/08/31 08:09:14;;;;;;;5.10;2.00;;;17.80;99.90;;;;;;5008418;28;20190;-89
2021/08/31 08:11:39;;;;;;;4.90;1.83;;;17.80;99.90;;;;;;5006309;28;20245;-89
2021/08/31 08:14:05;;;;;;;3.53;2.13;;;17.60;99.90;;;;;;5015156;28;20206;-88
2021/08/31 08:16:34;;;;;;;2.63;1.97;;;17.90;99.90;;;;;;5006043;28;20942;-88
2021/08/31 08:19:00;;;;;;;7.73;1.47;;;18.00;99.90;;;;;;5007217;28;20233;-89
2021/08/31 08:21:26;;;;;;;5.67;2.07;;;18.00;99.90;;;;;;5006707;28;20190;-88
2021/08/31 08:23:52;;;;;;;7.77;2.37;;;17.80;99.90;;;;;;5007110;28;20187;-88
2021/08/31 08:26:17;;;;;;;4.73;2.10;;;17.80;99.90;;;;;;5008043;28;20225;-87
2021/08/31 08:28:43;;;;;;;5.20;2.30;;;17.90;99.90;;;;;;5019824;28;20251;-89
2021/08/31 08:31:09;;;;;;;3.10;2.17;;;18.00;99.90;;;;;;5010558;28;20249;-87
2021/08/31 08:33:35;;;;;;;3.03;2.30;;;18.00;99.90;;;;;;5011132;28;20191;-88
2021/08/31 08:36:03;;;;;;;9.43;2.17;;;18.10;99.90;;;;;;5010217;28;20227;-88
2021/08/31 08:38:29;;;;;;;6.40;3.17;;;18.20;99.90;;;;;;5019438;28;20306;-87
2021/08/31 08:40:57;;;;;;;6.80;2.37;;;18.20;99.90;;;;;;5009944;28;20249;-88
2021/08/31 08:43:23;;;;;;;4.07;2.37;;;18.30;99.90;;;;;;5002812;28;20333;-88
2021/08/31 08:45:50;;;;;;;14.17;2.60;;;18.50;99.90;;;;;;5038194;28;20990;-88
2021/08/31 08:48:18;;;;;;;4.33;1.43;;;19.00;99.90;;;;;;5012552;28;20584;-89
2021/08/31 08:50:44;;;;;;;7.93;2.47;;;20.00;99.90;;;;;;5017515;28;20207;-88
2021/08/31 08:53:11;;;;;;;6.93;2.67;;;19.40;99.90;;;;;;5011074;28;20250;-89
2021/08/31 08:55:36;;;;;;;6.53;2.30;;;19.00;99.90;;;;;;5016890;28;20646;-89
2021/08/31 08:58:02;;;;;;;6.40;2.37;;;18.90;99.90;;;;;;5011084;28;20243;-88
2021/08/31 09:00:51;;;;;;;4.07;2.00;;;18.80;99.90;;;;;;5010572;28;20197;-88
2021/08/31 09:03:18;;;;;;;5.10;2.23;;;18.60;99.90;;;;;;5021168;28;20205;-87
2021/08/31 09:05:43;;;;;;;5.33;2.10;;;18.50;99.90;;;;;;5018366;28;20568;-87
2021/08/31 09:08:09;;;;;;;5.53;2.03;;;18.40;99.90;;;;;;5009535;28;20203;-87
2021/08/31 09:10:35;;;;;;;10.00;2.90;;;18.30;99.90;;;;;;5009527;28;20215;-88
2021/08/31 09:13:02;;;;;;;14.87;2.73;;;18.40;99.90;;;;;;5009850;28;20214;-89
2021/08/31 09:15:35;;;;;;;6.23;2.27;;;18.50;99.90;;;;;;5009637;28;20301;-87
2021/08/31 09:18:07;;;;;;;4.63;2.37;;;18.50;99.90;;;;;;5018468;28;20222;-87
2021/08/31 09:20:47;;;;;;;3.10;2.10;;;18.30;99.90;;;;;;5015584;28;20223;-88
2021/08/31 09:23:24;;;;;;;3.80;1.60;;;18.10;99.90;;;;;;5019165;28;21136;-89
2021/08/31 09:25:53;;;;;;;2.87;2.00;;;17.90;99.90;;;;;;5016207;28;20310;-90
2021/08/31 09:28:24;;;;;;;2.40;1.23;;;17.80;99.90;;;;;;5017822;28;20711;-90
2021/08/31 09:30:58;;;;;;;2.47;1.60;;;17.80;99.90;;;;;;5018764;28;20218;-90
2021/08/31 09:33:26;;;;;;;5.40;2.23;;;17.80;99.90;;;;;;5028008;28;20452;-90
2021/08/31 09:36:16;;;;;;;3.57;1.87;;;17.90;99.90;;;;;;5021636;28;20211;-89
2021/08/31 09:38:53;;;;;;;2.60;1.23;;;18.00;99.90;;;;;;5017898;28;20235;-89
2021/08/31 09:41:42;;;;;;;6.60;2.33;;;18.10;99.90;;;;;;5016844;28;20253;-91
2021/08/31 09:44:23;;;;;;;7.00;2.20;;;18.20;99.90;;;;;;5017073;28;20703;-90
2021/08/31 09:46:59;;;;;;;2.70;1.80;;;18.20;99.90;;;;;;5009610;28;20211;-90
2021/08/31 09:49:30;;;;;;;4.70;1.90;;;17.90;99.90;;;;;;5004576;28;20215;-91
2021/08/31 09:52:04;;;;;;;2.77;1.67;;;17.90;99.90;;;;;;5019453;28;20216;-91
2021/08/31 09:54:34;;;;;;;8.83;2.37;;;17.80;99.90;;;;;;5019345;28;20174;-90
2021/08/31 09:56:59;;;;;;;3.90;2.07;;;17.80;99.90;;;;;;5011070;28;20222;-90
2021/08/31 09:59:26;;;;;;;5.37;2.37;;;18.00;99.90;;;;;;5009671;28;20643;-90
2021/08/31 10:01:53;;;;;;;5.77;3.03;;;18.20;99.90;;;;;;5019796;28;20219;-91
2021/08/31 10:04:20;;;;;;;4.77;2.00;;;18.10;99.90;;;;;;5020077;28;20247;-91
2021/08/31 10:06:48;;;;;;;9.53;2.40;;;18.10;99.90;;;;;;5010707;28;20247;-93
2021/08/31 10:09:15;;;;;;;4.43;2.07;;;17.90;99.90;;;;;;5010005;28;20191;-92
2021/08/31 10:11:41;;;;;;;10.07;2.47;;;18.00;99.90;;;;;;5018521;28;20551;-93
2021/08/31 10:14:09;;;;;;;4.43;2.07;;;18.00;99.90;;;;;;5009863;28;20210;-90
2021/08/31 10:16:36;;;;;;;4.77;1.57;;;18.00;99.90;;;;;;5008825;28;20281;-90
2021/08/31 10:19:02;;;;;;;3.30;2.37;;;17.90;99.90;;;;;;5000550;28;20697;-91
2021/08/31 10:21:28;;;;;;;5.70;2.23;;;17.90;99.90;;;;;;5009483;28;20237;-90
2021/08/31 10:23:54;;;;;;;9.27;2.77;;;18.00;99.90;;;;;;5020094;28;20252;-90
2021/08/31 10:26:32;;;;;;;6.93;2.23;;;18.00;99.90;;;;;;5009385;28;20211;-91
2021/08/31 10:29:13;;;;;;;9.93;2.30;;;17.90;99.90;;;;;;5017332;28;20219;-91
2021/08/31 10:31:41;;;;;;;9.60;1.90;;;17.90;99.90;;;;;;5018868;28;20944;-91
2021/08/31 10:34:30;;;;;;;8.63;1.83;;;17.90;99.90;;;;;;5008151;28;20222;-91
2021/08/31 10:37:00;;;;;;;4.03;1.03;;;18.00;99.90;;;;;;5010632;28;20227;-91
2021/08/31 10:39:53;;;;;;;4.43;2.17;;;18.10;99.90;;;;;;5025585;28;20191;-92
2021/08/31 10:42:31;;;;;;;2.53;1.50;;;18.00;99.90;;;;;;5017692;28;20202;-88
2021/08/31 10:45:02;;;;;;;12.47;1.93;;;18.00;99.90;;;;;;5014815;28;20711;-89
2021/08/31 10:47:37;;;;;;;8.53;2.20;;;18.00;99.90;;;;;;5008505;28;20229;-89
2021/08/31 10:50:05;;;;;;;11.70;2.63;;;18.10;99.90;;;;;;5016612;28;20225;-90
2021/08/31 10:52:36;;;;;;;2.80;1.57;;;18.10;99.90;;;;;;5020001;28;20253;-87
2021/08/31 10:55:03;;;;;;;3.07;1.97;;;18.00;99.90;;;;;;5015885;28;20366;-90
2021/08/31 10:57:35;;;;;;;7.27;2.07;;;17.60;99.90;;;;;;5010190;28;20190;-88
2021/08/31 11:00:24;;;;;;;2.23;1.40;;;17.70;99.90;;;;;;5017183;28;20199;-89
2021/08/31 11:03:00;;;;;;;3.57;2.30;;;17.60;99.90;;;;;;5016521;28;20291;-92
2021/08/31 11:05:27;;;;;;;7.70;1.20;;;17.60;99.90;;;;;;5010428;28;20788;-89
2021/08/31 11:08:00;;;;;;;4.27;1.77;;;17.70;99.90;;;;;;5015820;28;20229;-89
2021/08/31 11:10:36;;;;;;;10.93;1.60;;;17.70;99.90;;;;;;5018028;28;20222;-89
2021/08/31 11:13:22;;;;;;;8.97;2.27;;;17.80;99.90;;;;;;5016131;28;20223;-89
2021/08/31 11:15:48;;;;;;;13.50;2.83;;;17.70;99.90;;;;;;5019401;28;20268;-90
2021/08/31 11:18:17;;;;;;;7.13;2.43;;;17.80;99.90;;;;;;5017740;28;20235;-89
2021/08/31 11:20:47;;;;;;;3.37;1.63;;;17.80;99.90;;;;;;5009386;28;20270;-89
2021/08/31 11:23:18;;;;;;;4.73;1.53;;;18.00;99.90;;;;;;5017489;28;20238;-89
2021/08/31 11:25:54;;;;;;;5.27;2.30;;;18.00;99.90;;;;;;5009003;28;20308;-92
2021/08/31 11:28:26;;;;;;;2.63;1.63;;;18.10;99.90;;;;;;5017919;28;20222;-89
2021/08/31 11:31:00;;;;;;;4.57;1.83;;;18.10;99.90;;;;;;5016309;28;20219;-90
2021/08/31 11:33:36;;;;;;;3.70;1.70;;;18.10;99.90;;;;;;5018053;28;20205;-89
2021/08/31 11:36:01;;;;;;;6.57;1.67;;;18.10;99.90;;;;;;5017390;28;20289;-91
2021/08/31 11:38:39;;;;;;;2.30;2.00;;;18.00;99.90;;;;;;5017870;28;20449;-90
2021/08/31 11:41:14;;;;;;;4.90;2.53;;;18.00;99.90;;;;;;5017877;28;20289;-89
2021/08/31 11:43:39;;;;;;;4.93;1.90;;;17.90;99.90;;;;;;5014750;28;20219;-86
2021/08/31 11:46:06;;;;;;;4.57;2.13;;;17.80;99.90;;;;;;5018754;28;20924;-89
2021/08/31 11:48:34;;;;;;;9.77;2.00;;;17.70;99.90;;;;;;5001962;28;20627;-90
2021/08/31 11:51:00;;;;;;;3.90;1.50;;;17.70;99.90;;;;;;5017588;28;20188;-90
2021/08/31 11:53:26;;;;;;;8.87;2.07;;;17.60;99.90;;;;;;5006846;28;20246;-88
2021/08/31 11:56:05;;;;;;;6.20;2.37;;;17.70;99.90;;;;;;5007742;28;20282;-92
2021/08/31 11:58:41;;;;;;;5.90;2.37;;;17.80;99.90;;;;;;5016036;28;20372;-90
2021/08/31 12:01:07;;;;;;;2.83;1.60;;;17.60;99.90;;;;;;5015916;28;20289;-89
2021/08/31 12:03:32;;;;;;;2.97;1.53;;;17.50;99.90;;;;;;5008527;28;20322;-90
2021/08/31 12:06:08;;;;;;;3.57;1.10;;;17.60;99.90;;;;;;5017815;28;20182;-90
2021/08/31 12:08:41;;;;;;;10.17;2.27;;;17.60;99.90;;;;;;5016577;28;20683;-89
2021/08/31 12:11:08;;;;;;;5.03;1.93;;;17.70;99.90;;;;;;5016740;28;20203;-89
2021/08/31 12:13:35;;;;;;;4.40;1.57;;;17.70;99.90;;;;;;5015592;28;20214;-88
2021/08/31 12:16:01;;;;;;;7.60;1.63;;;17.80;99.90;;;;;;5008731;28;20234;-90
2021/08/31 12:18:29;;;;;;;2.63;1.80;;;17.70;99.90;;;;;;5007992;28;20276;-90
2021/08/31 12:21:12;;;;;;;6.60;1.77;;;17.70;99.90;;;;;;5019371;28;20195;-89
2021/08/31 12:23:38;;;;;;;4.70;2.00;;;17.80;99.90;;;;;;5015842;28;20713;-90
2021/08/31 12:26:04;;;;;;;3.33;1.53;;;17.80;99.90;;;;;;5008328;28;20245;-90
2021/08/31 12:28:30;;;;;;;5.03;1.60;;;17.70;99.90;;;;;;5008077;28;20223;-89
2021/08/31 12:30:55;;;;;;;4.17;1.83;;;17.60;99.90;;;;;;5008535;28;20221;-89
2021/08/31 12:33:23;;;;;;;5.07;1.70;;;17.60;99.90;;;;;;5016209;28;20191;-89
2021/08/31 12:36:03;;;;;;;6.23;1.97;;;17.70;99.90;;;;;;5017284;28;20286;-89
2021/08/31 12:38:41;;;;;;;4.50;2.33;;;17.50;99.90;;;;;;5017171;28;20721;-91
2021/08/31 12:41:14;;;;;;;2.40;1.77;;;17.50;99.90;;;;;;5035100;28;20714;-89
2021/08/31 12:43:49;;;;;;;5.00;1.63;;;17.70;99.90;;;;;;5015852;28;20215;-90
2021/08/31 12:46:21;;;;;;;4.07;1.97;;;17.90;99.90;;;;;;5017490;28;20210;-89
2021/08/31 12:48:48;;;;;;;5.37;1.70;;;17.70;99.90;;;;;;5008484;28;20214;-90